sensor_id;sensor_type;location;lat;lon;timestamp;pressure;altitude;pressure_sealevel;temperature;humidity
69306;BME280;56427;51.580;4.656;2023-07-22T00:01:05;101408.16;;;16.44;100.00
69306;BME280;56427;51.580;4.656;2023-07-22T00:03:31;101408.16;;;16.44;100.00
69306;BME280;56427;51.580;4.656;2023-07-22T00:06:06;101409.97;;;16.43;100.00
69306;BME280;56427;51.580;4.656;2023-07-22T00:08:36;101409.97;;;16.43;100.00
69306;BME280;56427;51.580;4.656;2023-07-22T00:11:03;101411.59;;;16.44;100.00
69306;BME280;56427;51.580;4.656;2023-07-22T00:13:29;101407.50;;;16.42;100.00
69306;BME280;56427;51.580;4.656;2023-07-22T00:15:55;101402.31;;;16.50;100.00
69306;BME280;56427;51.580;4.656;2023-07-22T00:18:21;101399.63;;;16.42;100.00
69306;BME280;56427;51.580;4.656;2023-07-22T00:20:50;101405.47;;;16.35;100.00
69306;BME280;56427;51.580;4.656;2023-07-22T00:23:15;101399.72;;;16.32;100.00
69306;BME280;56427;51.580;4.656;2023-07-22T00:25:41;101400.09;;;16.37;100.00
69306;BME280;56427;51.580;4.656;2023-07-22T00:28:07;101403.81;;;16.34;100.00
69306;BME280;56427;51.580;4.656;2023-07-22T00:30:32;101403.59;;;16.28;100.00
69306;BME280;56427;51.580;4.656;2023-07-22T00:32:58;101404.88;;;16.24;100.00
69306;BME280;56427;51.580;4.656;2023-07-22T00:35:23;101407.44;;;16.15;100.00
69306;BME280;56427;51.580;4.656;2023-07-22T00:37:48;101407.13;;;16.18;100.00
69306;BME280;56427;51.580;4.656;2023-07-22T00:40:14;101397.91;;;16.14;100.00
69306;BME280;56427;51.580;4.656;2023-07-22T00:42:40;101403.91;;;16.07;100.00
69306;BME280;56427;51.580;4.656;2023-07-22T00:45:06;101401.22;;;15.98;100.00
69306;BME280;56427;51.580;4.656;2023-07-22T00:47:33;101400.75;;;16.03;100.00
69306;BME280;56427;51.580;4.656;2023-07-22T00:50:01;101392.38;;;15.99;100.00
69306;BME280;56427;51.580;4.656;2023-07-22T00:52:27;101396.03;;;15.89;100.00
69306;BME280;56427;51.580;4.656;2023-07-22T00:54:53;101386.19;;;15.82;100.00
69306;BME280;56427;51.580;4.656;2023-07-22T00:57:18;101385.06;;;15.85;100.00
69306;BME280;56427;51.580;4.656;2023-07-22T00:59:44;101376.81;;;15.80;100.00
69306;BME280;56427;51.580;4.656;2023-07-22T01:02:10;101383.06;;;15.79;100.00
69306;BME280;56427;51.580;4.656;2023-07-22T01:04:36;101387.16;;;15.81;100.00
69306;BME280;56427;51.580;4.656;2023-07-22T01:07:03;101387.59;;;15.77;100.00
69306;BME280;56427;51.580;4.656;2023-07-22T01:09:36;101387.44;;;15.78;100.00
69306;BME280;56427;51.580;4.656;2023-07-22T01:12:02;101379.34;;;15.72;100.00
69306;BME280;56427;51.580;4.656;2023-07-22T01:14:27;101381.66;;;15.75;100.00
69306;BME280;56427;51.580;4.656;2023-07-22T01:16:53;101380.47;;;15.69;100.00
69306;BME280;56427;51.580;4.656;2023-07-22T01:19:19;101373.72;;;15.67;100.00
69306;BME280;56427;51.580;4.656;2023-07-22T01:21:45;101378.22;;;15.74;100.00
69306;BME280;56427;51.580;4.656;2023-07-22T01:24:12;101375.66;;;15.64;100.00
69306;BME280;56427;51.580;4.656;2023-07-22T01:26:37;101380.22;;;15.62;100.00
69306;BME280;56427;51.580;4.656;2023-07-22T01:29:04;101376.91;;;15.60;100.00
69306;BME280;56427;51.580;4.656;2023-07-22T01:31:30;101375.59;;;15.56;100.00
69306;BME280;56427;51.580;4.656;2023-07-22T01:33:55;101376.16;;;15.50;100.00
69306;BME280;56427;51.580;4.656;2023-07-22T01:36:21;101374.44;;;15.59;100.00
69306;BME280;56427;51.580;4.656;2023-07-22T01:38:46;101366.31;;;15.34;100.00
69306;BME280;56427;51.580;4.656;2023-07-22T01:41:11;101371.13;;;15.39;100.00
69306;BME280;56427;51.580;4.656;2023-07-22T01:43:37;101369.56;;;15.28;100.00
69306;BME280;56427;51.580;4.656;2023-07-22T01:46:02;101367.78;;;15.19;100.00
69306;BME280;56427;51.580;4.656;2023-07-22T01:48:28;101375.91;;;15.16;100.00
69306;BME280;56427;51.580;4.656;2023-07-22T01:50:53;101359.28;;;15.17;100.00
69306;BME280;56427;51.580;4.656;2023-07-22T01:53:19;101367.66;;;15.20;100.00
69306;BME280;56427;51.580;4.656;2023-07-22T01:55:45;101366.13;;;15.18;100.00
69306;BME280;56427;51.580;4.656;2023-07-22T01:58:11;101362.50;;;15.01;100.00
69306;BME280;56427;51.580;4.656;2023-07-22T02:00:36;101371.75;;;14.95;100.00
69306;BME280;56427;51.580;4.656;2023-07-22T02:03:01;101358.25;;;14.90;100.00
69306;BME280;56427;51.580;4.656;2023-07-22T02:05:27;101362.44;;;14.83;100.00
69306;BME280;56427;51.580;4.656;2023-07-22T02:07:54;101351.31;;;14.81;100.00
69306;BME280;56427;51.580;4.656;2023-07-22T02:10:20;101354.31;;;14.86;100.00
69306;BME280;56427;51.580;4.656;2023-07-22T02:12:45;101350.75;;;14.87;100.00
69306;BME280;56427;51.580;4.656;2023-07-22T02:15:11;101355.16;;;14.77;100.00
69306;BME280;56427;51.580;4.656;2023-07-22T02:17:37;101349.53;;;14.71;100.00
69306;BME280;56427;51.580;4.656;2023-07-22T02:20:02;101349.00;;;14.68;100.00
69306;BME280;56427;51.580;4.656;2023-07-22T02:22:29;101348.72;;;14.71;100.00
69306;BME280;56427;51.580;4.656;2023-07-22T02:24:55;101337.88;;;14.66;100.00
69306;BME280;56427;51.580;4.656;2023-07-22T02:27:20;101343.63;;;14.69;100.00
69306;BME280;56427;51.580;4.656;2023-07-22T02:29:45;101346.00;;;14.63;100.00
69306;BME280;56427;51.580;4.656;2023-07-22T02:32:11;101341.56;;;14.53;100.00
69306;BME280;56427;51.580;4.656;2023-07-22T02:34:36;101341.16;;;14.58;100.00
69306;BME280;56427;51.580;4.656;2023-07-22T02:37:03;101332.66;;;14.46;100.00
69306;BME280;56427;51.580;4.656;2023-07-22T02:39:28;101340.91;;;14.61;100.00
69306;BME280;56427;51.580;4.656;2023-07-22T02:41:53;101336.09;;;14.47;100.00
69306;BME280;56427;51.580;4.656;2023-07-22T02:44:19;101346.69;;;14.45;100.00
69306;BME280;56427;51.580;4.656;2023-07-22T02:46:44;101345.69;;;14.56;100.00
69306;BME280;56427;51.580;4.656;2023-07-22T02:49:09;101341.19;;;14.48;100.00
69306;BME280;56427;51.580;4.656;2023-07-22T02:51:35;101334.75;;;14.33;100.00
69306;BME280;56427;51.580;4.656;2023-07-22T02:54:00;101346.69;;;14.45;100.00
69306;BME280;56427;51.580;4.656;2023-07-22T02:56:26;101337.22;;;14.34;100.00
69306;BME280;56427;51.580;4.656;2023-07-22T02:58:51;101339.44;;;14.39;100.00
69306;BME280;56427;51.580;4.656;2023-07-22T03:01:17;101339.97;;;14.33;100.00
69306;BME280;56427;51.580;4.656;2023-07-22T03:03:44;101344.22;;;14.34;100.00
69306;BME280;56427;51.580;4.656;2023-07-22T03:06:09;101347.53;;;14.36;100.00
69306;BME280;56427;51.580;4.656;2023-07-22T03:08:35;101341.22;;;14.19;100.00
69306;BME280;56427;51.580;4.656;2023-07-22T03:11:01;101352.22;;;14.13;100.00
69306;BME280;56427;51.580;4.656;2023-07-22T03:13:26;101353.31;;;14.10;100.00
69306;BME280;56427;51.580;4.656;2023-07-22T03:15:55;101350.56;;;14.02;100.00
69306;BME280;56427;51.580;4.656;2023-07-22T03:18:20;101359.50;;;13.99;100.00
69306;BME280;56427;51.580;4.656;2023-07-22T03:20:46;101363.75;;;13.91;100.00
69306;BME280;56427;51.580;4.656;2023-07-22T03:23:11;101341.22;;;13.99;100.00
69306;BME280;56427;51.580;4.656;2023-07-22T03:25:37;101356.75;;;14.01;100.00
69306;BME280;56427;51.580;4.656;2023-07-22T03:28:04;101348.22;;;13.79;100.00
69306;BME280;56427;51.580;4.656;2023-07-22T03:30:29;101354.97;;;14.02;100.00
69306;BME280;56427;51.580;4.656;2023-07-22T03:32:55;101356.75;;;13.91;100.00
69306;BME280;56427;51.580;4.656;2023-07-22T03:35:21;101356.06;;;13.89;100.00
69306;BME280;56427;51.580;4.656;2023-07-22T03:37:46;101347.56;;;13.97;100.00
69306;BME280;56427;51.580;4.656;2023-07-22T03:40:15;101354.97;;;13.92;100.00
69306;BME280;56427;51.580;4.656;2023-07-22T03:43:01;101363.59;;;13.83;100.00
69306;BME280;56427;51.580;4.656;2023-07-22T03:45:26;101350.41;;;13.74;100.00
69306;BME280;56427;51.580;4.656;2023-07-22T03:48:01;101359.91;;;13.75;100.00
69306;BME280;56427;51.580;4.656;2023-07-22T03:50:27;101365.25;;;13.64;100.00
69306;BME280;56427;51.580;4.656;2023-07-22T03:52:52;101357.53;;;13.62;100.00
69306;BME280;56427;51.580;4.656;2023-07-22T03:55:18;101355.63;;;13.65;100.00
69306;BME280;56427;51.580;4.656;2023-07-22T03:57:47;101361.69;;;13.65;100.00
69306;BME280;56427;51.580;4.656;2023-07-22T04:00:13;101357.25;;;13.56;100.00
69306;BME280;56427;51.580;4.656;2023-07-22T04:02:38;101361.78;;;13.54;100.00
69306;BME280;56427;51.580;4.656;2023-07-22T04:05:04;101373.56;;;13.48;100.00
69306;BME280;56427;51.580;4.656;2023-07-22T04:07:30;101372.50;;;13.60;100.00
69306;BME280;56427;51.580;4.656;2023-07-22T04:09:55;101359.75;;;13.67;100.00
69306;BME280;56427;51.580;4.656;2023-07-22T04:12:20;101361.22;;;13.50;100.00
69306;BME280;56427;51.580;4.656;2023-07-22T04:14:46;101365.34;;;13.53;100.00
69306;BME280;56427;51.580;4.656;2023-07-22T04:17:11;101358.34;;;13.63;100.00
69306;BME280;56427;51.580;4.656;2023-07-22T04:19:37;101364.41;;;13.64;100.00
69306;BME280;56427;51.580;4.656;2023-07-22T04:22:02;101358.22;;;13.65;100.00
69306;BME280;56427;51.580;4.656;2023-07-22T04:24:35;101364.00;;;13.68;100.00
69306;BME280;56427;51.580;4.656;2023-07-22T04:27:01;101361.25;;;13.79;100.00
69306;BME280;56427;51.580;4.656;2023-07-22T04:29:26;101364.44;;;13.93;100.00
69306;BME280;56427;51.580;4.656;2023-07-22T04:31:57;101366.09;;;13.94;100.00
69306;BME280;56427;51.580;4.656;2023-07-22T04:34:22;101359.78;;;14.06;100.00
69306;BME280;56427;51.580;4.656;2023-07-22T04:36:48;101364.44;;;14.12;100.00
69306;BME280;56427;51.580;4.656;2023-07-22T04:39:13;101376.66;;;13.92;100.00
69306;BME280;56427;51.580;4.656;2023-07-22T04:41:38;101366.63;;;13.78;100.00
69306;BME280;56427;51.580;4.656;2023-07-22T04:44:04;101373.09;;;13.93;100.00
69306;BME280;56427;51.580;4.656;2023-07-22T04:46:29;101375.00;;;14.11;100.00
69306;BME280;56427;51.580;4.656;2023-07-22T04:48:56;101374.88;;;14.12;100.00
69306;BME280;56427;51.580;4.656;2023-07-22T04:51:23;101365.81;;;14.07;100.00
69306;BME280;56427;51.580;4.656;2023-07-22T04:53:48;101373.50;;;13.98;100.00
69306;BME280;56427;51.580;4.656;2023-07-22T04:56:14;101358.53;;;14.01;100.00
69306;BME280;56427;51.580;4.656;2023-07-22T04:58:39;101365.69;;;14.08;100.00
69306;BME280;56427;51.580;4.656;2023-07-22T05:01:04;101353.72;;;14.06;100.00
69306;BME280;56427;51.580;4.656;2023-07-22T05:03:30;101354.34;;;14.57;100.00
69306;BME280;56427;51.580;4.656;2023-07-22T05:05:56;101351.22;;;14.63;100.00
69306;BME280;56427;51.580;4.656;2023-07-22T05:08:23;101361.47;;;14.84;100.00
69306;BME280;56427;51.580;4.656;2023-07-22T05:10:48;101360.69;;;14.54;100.00
69306;BME280;56427;51.580;4.656;2023-07-22T05:13:13;101359.28;;;14.79;100.00
69306;BME280;56427;51.580;4.656;2023-07-22T05:15:39;101355.41;;;14.83;100.00
69306;BME280;56427;51.580;4.656;2023-07-22T05:18:06;101365.56;;;15.24;100.00
69306;BME280;56427;51.580;4.656;2023-07-22T05:20:31;101358.41;;;15.72;100.00
69306;BME280;56427;51.580;4.656;2023-07-22T05:22:58;101360.31;;;15.97;100.00
69306;BME280;56427;51.580;4.656;2023-07-22T05:25:23;101352.00;;;16.20;100.00
69306;BME280;56427;51.580;4.656;2023-07-22T05:27:49;101361.13;;;16.16;100.00
69306;BME280;56427;51.580;4.656;2023-07-22T05:30:14;101351.88;;;16.30;100.00
69306;BME280;56427;51.580;4.656;2023-07-22T05:32:40;101349.97;;;16.14;100.00
69306;BME280;56427;51.580;4.656;2023-07-22T05:35:05;101357.66;;;16.33;100.00
69306;BME280;56427;51.580;4.656;2023-07-22T05:37:31;101367.16;;;15.98;100.00
69306;BME280;56427;51.580;4.656;2023-07-22T05:39:57;101352.78;;;15.67;100.00
69306;BME280;56427;51.580;4.656;2023-07-22T05:42:23;101367.03;;;15.82;100.00
69306;BME280;56427;51.580;4.656;2023-07-22T05:44:48;101361.56;;;15.93;100.00
69306;BME280;56427;51.580;4.656;2023-07-22T05:47:14;101349.78;;;15.61;100.00
69306;BME280;56427;51.580;4.656;2023-07-22T05:49:39;101359.94;;;15.92;100.00
69306;BME280;56427;51.580;4.656;2023-07-22T05:52:05;101352.94;;;15.65;100.00
69306;BME280;56427;51.580;4.656;2023-07-22T05:54:31;101350.53;;;15.72;100.00
69306;BME280;56427;51.580;4.656;2023-07-22T05:56:56;101349.91;;;15.88;100.00
69306;BME280;56427;51.580;4.656;2023-07-22T05:59:21;101346.91;;;16.18;100.00
69306;BME280;56427;51.580;4.656;2023-07-22T06:01:47;101344.94;;;16.21;100.00
69306;BME280;56427;51.580;4.656;2023-07-22T06:04:12;101346.50;;;16.13;100.00
69306;BME280;56427;51.580;4.656;2023-07-22T06:06:38;101340.94;;;16.34;100.00
69306;BME280;56427;51.580;4.656;2023-07-22T06:09:03;101342.78;;;16.86;100.00
69306;BME280;56427;51.580;4.656;2023-07-22T06:11:30;101339.13;;;17.22;100.00
69306;BME280;56427;51.580;4.656;2023-07-22T06:13:55;101334.03;;;17.20;100.00
69306;BME280;56427;51.580;4.656;2023-07-22T06:16:21;101333.06;;;17.21;100.00
69306;BME280;56427;51.580;4.656;2023-07-22T06:18:46;101334.09;;;17.45;100.00
69306;BME280;56427;51.580;4.656;2023-07-22T06:21:11;101331.00;;;18.65;100.00
69306;BME280;56427;51.580;4.656;2023-07-22T06:23:37;101338.34;;;18.86;100.00
69306;BME280;56427;51.580;4.656;2023-07-22T06:26:02;101327.59;;;19.04;100.00
69306;BME280;56427;51.580;4.656;2023-07-22T06:28:27;101326.47;;;18.34;100.00
69306;BME280;56427;51.580;4.656;2023-07-22T06:30:53;101321.91;;;18.92;100.00
69306;BME280;56427;51.580;4.656;2023-07-22T06:33:18;101318.50;;;18.75;100.00
69306;BME280;56427;51.580;4.656;2023-07-22T06:35:43;101326.75;;;19.43;100.00
69306;BME280;56427;51.580;4.656;2023-07-22T06:38:09;101328.06;;;19.39;100.00
69306;BME280;56427;51.580;4.656;2023-07-22T06:40:34;101327.50;;;18.81;100.00
69306;BME280;56427;51.580;4.656;2023-07-22T06:43:01;101335.16;;;18.43;100.00
69306;BME280;56427;51.580;4.656;2023-07-22T06:45:26;101326.00;;;17.97;100.00
69306;BME280;56427;51.580;4.656;2023-07-22T06:47:52;101325.00;;;18.15;100.00
69306;BME280;56427;51.580;4.656;2023-07-22T06:50:17;101333.88;;;17.89;100.00
69306;BME280;56427;51.580;4.656;2023-07-22T06:52:42;101340.22;;;17.54;100.00
69306;BME280;56427;51.580;4.656;2023-07-22T06:55:08;101336.69;;;17.28;100.00
69306;BME280;56427;51.580;4.656;2023-07-22T06:57:33;101339.91;;;17.65;100.00
69306;BME280;56427;51.580;4.656;2023-07-22T06:59:59;101328.38;;;17.41;100.00
69306;BME280;56427;51.580;4.656;2023-07-22T07:02:25;101334.28;;;17.35;100.00
69306;BME280;56427;51.580;4.656;2023-07-22T07:04:50;101337.81;;;18.18;100.00
69306;BME280;56427;51.580;4.656;2023-07-22T07:07:16;101340.59;;;18.41;100.00
69306;BME280;56427;51.580;4.656;2023-07-22T07:09:42;101337.50;;;18.93;100.00
69306;BME280;56427;51.580;4.656;2023-07-22T07:12:09;101335.44;;;18.64;100.00
69306;BME280;56427;51.580;4.656;2023-07-22T07:14:35;101330.00;;;18.74;100.00
69306;BME280;56427;51.580;4.656;2023-07-22T07:17:01;101323.50;;;18.20;100.00
69306;BME280;56427;51.580;4.656;2023-07-22T07:19:27;101321.56;;;18.06;100.00
69306;BME280;56427;51.580;4.656;2023-07-22T07:21:53;101326.72;;;18.72;100.00
69306;BME280;56427;51.580;4.656;2023-07-22T07:24:18;101328.22;;;18.58;100.00
69306;BME280;56427;51.580;4.656;2023-07-22T07:26:43;101320.34;;;18.58;100.00
69306;BME280;56427;51.580;4.656;2023-07-22T07:29:09;101327.25;;;18.51;100.00
69306;BME280;56427;51.580;4.656;2023-07-22T07:31:35;101326.31;;;17.94;100.00
69306;BME280;56427;51.580;4.656;2023-07-22T07:34:00;101326.50;;;17.93;100.00
69306;BME280;56427;51.580;4.656;2023-07-22T07:36:26;101323.78;;;18.67;100.00
69306;BME280;56427;51.580;4.656;2023-07-22T07:38:51;101316.66;;;19.23;100.00
69306;BME280;56427;51.580;4.656;2023-07-22T07:41:17;101333.69;;;19.90;100.00
69306;BME280;56427;51.580;4.656;2023-07-22T07:43:42;101320.84;;;20.25;100.00
69306;BME280;56427;51.580;4.656;2023-07-22T07:46:20;101317.88;;;20.43;100.00
69306;BME280;56427;51.580;4.656;2023-07-22T07:48:52;101319.16;;;20.77;100.00
69306;BME280;56427;51.580;4.656;2023-07-22T07:51:19;101322.88;;;20.00;100.00
69306;BME280;56427;51.580;4.656;2023-07-22T07:53:45;101321.97;;;19.93;100.00
69306;BME280;56427;51.580;4.656;2023-07-22T07:56:15;101313.88;;;20.47;100.00
69306;BME280;56427;51.580;4.656;2023-07-22T07:58:42;101315.88;;;20.45;100.00
69306;BME280;56427;51.580;4.656;2023-07-22T08:01:07;101322.41;;;20.49;100.00
69306;BME280;56427;51.580;4.656;2023-07-22T08:03:34;101317.59;;;20.23;100.00
69306;BME280;56427;51.580;4.656;2023-07-22T08:06:00;101314.34;;;20.81;100.00
69306;BME280;56427;51.580;4.656;2023-07-22T08:08:26;101314.94;;;21.12;100.00
69306;BME280;56427;51.580;4.656;2023-07-22T08:11:02;101316.59;;;21.35;100.00
69306;BME280;56427;51.580;4.656;2023-07-22T08:13:29;101319.97;;;20.48;100.00
69306;BME280;56427;51.580;4.656;2023-07-22T08:15:59;101315.41;;;20.41;100.00
69306;BME280;56427;51.580;4.656;2023-07-22T08:18:25;101319.81;;;20.64;100.00
69306;BME280;56427;51.580;4.656;2023-07-22T08:20:54;101324.72;;;20.67;100.00
69306;BME280;56427;51.580;4.656;2023-07-22T08:23:23;101321.22;;;20.52;100.00
69306;BME280;56427;51.580;4.656;2023-07-22T08:25:49;101323.88;;;20.52;100.00
69306;BME280;56427;51.580;4.656;2023-07-22T08:28:15;101328.59;;;21.01;100.00
69306;BME280;56427;51.580;4.656;2023-07-22T08:30:41;101330.34;;;20.94;100.00
69306;BME280;56427;51.580;4.656;2023-07-22T08:33:10;101327.31;;;21.12;100.00
69306;BME280;56427;51.580;4.656;2023-07-22T08:35:39;101324.38;;;22.08;100.00
69306;BME280;56427;51.580;4.656;2023-07-22T08:38:05;101323.16;;;21.61;100.00
69306;BME280;56427;51.580;4.656;2023-07-22T08:40:39;101320.31;;;22.69;97.47
69306;BME280;56427;51.580;4.656;2023-07-22T08:43:07;101316.28;;;22.38;97.48
69306;BME280;56427;51.580;4.656;2023-07-22T08:45:34;101326.06;;;21.87;100.00
69306;BME280;56427;51.580;4.656;2023-07-22T08:48:06;101316.41;;;20.85;100.00
69306;BME280;56427;51.580;4.656;2023-07-22T08:50:49;101312.44;;;20.74;100.00
69306;BME280;56427;51.580;4.656;2023-07-22T08:53:15;101320.78;;;20.48;100.00
69306;BME280;56427;51.580;4.656;2023-07-22T08:55:42;101307.34;;;20.73;100.00
69306;BME280;56427;51.580;4.656;2023-07-22T08:58:11;101300.03;;;21.26;100.00
69306;BME280;56427;51.580;4.656;2023-07-22T09:00:38;101302.34;;;21.14;100.00
69306;BME280;56427;51.580;4.656;2023-07-22T09:03:04;101302.44;;;20.70;100.00
69306;BME280;56427;51.580;4.656;2023-07-22T09:05:32;101309.22;;;20.34;100.00
69306;BME280;56427;51.580;4.656;2023-07-22T09:07:59;101311.09;;;20.11;100.00
69306;BME280;56427;51.580;4.656;2023-07-22T09:10:27;101304.63;;;19.75;100.00
69306;BME280;56427;51.580;4.656;2023-07-22T09:12:53;101302.31;;;20.18;100.00
69306;BME280;56427;51.580;4.656;2023-07-22T09:15:18;101309.56;;;20.16;100.00
69306;BME280;56427;51.580;4.656;2023-07-22T09:17:45;101316.41;;;20.26;100.00
69306;BME280;56427;51.580;4.656;2023-07-22T09:20:14;101309.03;;;20.21;100.00
69306;BME280;56427;51.580;4.656;2023-07-22T09:22:45;101310.25;;;19.95;100.00
69306;BME280;56427;51.580;4.656;2023-07-22T09:27:40;101313.63;;;20.04;100.00
69306;BME280;56427;51.580;4.656;2023-07-22T09:30:24;101314.97;;;20.38;100.00
69306;BME280;56427;51.580;4.656;2023-07-22T09:32:50;101299.34;;;20.66;100.00
69306;BME280;56427;51.580;4.656;2023-07-22T09:35:17;101302.16;;;20.50;100.00
69306;BME280;56427;51.580;4.656;2023-07-22T09:37:42;101304.44;;;20.38;100.00
69306;BME280;56427;51.580;4.656;2023-07-22T09:40:15;101304.41;;;19.85;100.00
69306;BME280;56427;51.580;4.656;2023-07-22T09:42:46;101302.28;;;20.03;100.00
69306;BME280;56427;51.580;4.656;2023-07-22T09:45:11;101303.69;;;19.91;100.00
69306;BME280;56427;51.580;4.656;2023-07-22T09:47:45;101306.78;;;19.48;100.00
69306;BME280;56427;51.580;4.656;2023-07-22T09:50:15;101302.41;;;19.41;100.00
69306;BME280;56427;51.580;4.656;2023-07-22T09:55:11;101311.16;;;19.33;100.00
69306;BME280;56427;51.580;4.656;2023-07-22T09:57:40;101310.25;;;19.18;100.00
69306;BME280;56427;51.580;4.656;2023-07-22T10:00:09;101313.84;;;19.25;100.00
69306;BME280;56427;51.580;4.656;2023-07-22T10:02:35;101312.63;;;19.36;100.00
69306;BME280;56427;51.580;4.656;2023-07-22T10:05:04;101319.38;;;19.61;100.00
69306;BME280;56427;51.580;4.656;2023-07-22T10:07:32;101316.59;;;20.54;100.00
69306;BME280;56427;51.580;4.656;2023-07-22T10:09:59;101297.53;;;21.18;100.00
69306;BME280;56427;51.580;4.656;2023-07-22T10:12:26;101294.00;;;21.97;100.00
69306;BME280;56427;51.580;4.656;2023-07-22T10:14:53;101287.25;;;22.51;100.00
69306;BME280;56427;51.580;4.656;2023-07-22T10:17:21;101281.69;;;22.39;100.00
69306;BME280;56427;51.580;4.656;2023-07-22T10:19:47;101285.69;;;21.50;100.00
69306;BME280;56427;51.580;4.656;2023-07-22T10:22:14;101289.59;;;21.18;100.00
69306;BME280;56427;51.580;4.656;2023-07-22T10:24:40;101295.31;;;21.80;94.85
69306;BME280;56427;51.580;4.656;2023-07-22T10:27:07;101278.50;;;22.16;93.08
69306;BME280;56427;51.580;4.656;2023-07-22T10:29:33;101281.41;;;22.28;92.66
69306;BME280;56427;51.580;4.656;2023-07-22T10:32:02;101282.84;;;22.02;92.37
69306;BME280;56427;51.580;4.656;2023-07-22T10:34:29;101286.53;;;21.36;92.51
69306;BME280;56427;51.580;4.656;2023-07-22T10:36:59;101284.31;;;20.82;96.84
69306;BME280;56427;51.580;4.656;2023-07-22T10:39:31;101290.03;;;20.40;96.46
69306;BME280;56427;51.580;4.656;2023-07-22T10:42:06;101306.94;;;19.78;98.60
69306;BME280;56427;51.580;4.656;2023-07-22T10:44:36;101305.75;;;19.58;100.00
69306;BME280;56427;51.580;4.656;2023-07-22T10:47:01;101313.38;;;19.21;100.00
69306;BME280;56427;51.580;4.656;2023-07-22T10:49:43;101302.25;;;19.34;100.00
69306;BME280;56427;51.580;4.656;2023-07-22T10:52:11;101304.31;;;19.24;100.00
69306;BME280;56427;51.580;4.656;2023-07-22T10:54:37;101298.53;;;19.28;100.00
69306;BME280;56427;51.580;4.656;2023-07-22T10:57:25;101301.69;;;19.24;100.00
69306;BME280;56427;51.580;4.656;2023-07-22T10:59:54;101287.78;;;19.38;100.00
69306;BME280;56427;51.580;4.656;2023-07-22T11:02:28;101297.22;;;19.79;100.00
69306;BME280;56427;51.580;4.656;2023-07-22T11:05:02;101286.28;;;19.90;100.00
69306;BME280;56427;51.580;4.656;2023-07-22T11:07:31;101283.09;;;20.10;100.00
69306;BME280;56427;51.580;4.656;2023-07-22T11:09:57;101280.31;;;20.26;100.00
69306;BME280;56427;51.580;4.656;2023-07-22T11:12:24;101267.25;;;20.48;100.00
69306;BME280;56427;51.580;4.656;2023-07-22T11:14:52;101280.31;;;20.26;100.00
69306;BME280;56427;51.580;4.656;2023-07-22T11:17:27;101273.88;;;20.29;100.00
69306;BME280;56427;51.580;4.656;2023-07-22T11:19:53;101278.41;;;20.35;100.00
69306;BME280;56427;51.580;4.656;2023-07-22T11:22:19;101274.56;;;20.08;100.00
69306;BME280;56427;51.580;4.656;2023-07-22T11:24:45;101270.69;;;20.33;100.00
69306;BME280;56427;51.580;4.656;2023-07-22T11:27:11;101262.59;;;20.50;99.34
69306;BME280;56427;51.580;4.656;2023-07-22T11:29:37;101272.88;;;20.30;96.84
69306;BME280;56427;51.580;4.656;2023-07-22T11:32:03;101272.78;;;20.23;98.03
69306;BME280;56427;51.580;4.656;2023-07-22T11:34:39;101282.13;;;20.40;99.21
69306;BME280;56427;51.580;4.656;2023-07-22T11:37:05;101272.78;;;20.53;100.00
69306;BME280;56427;51.580;4.656;2023-07-22T11:39:30;101265.44;;;20.63;100.00
69306;BME280;56427;51.580;4.656;2023-07-22T11:42:00;101270.22;;;20.59;100.00
69306;BME280;56427;51.580;4.656;2023-07-22T11:44:27;101277.13;;;20.75;100.00
69306;BME280;56427;51.580;4.656;2023-07-22T11:47:02;101266.03;;;20.50;100.00
69306;BME280;56427;51.580;4.656;2023-07-22T11:49:32;101261.50;;;20.29;99.52
69306;BME280;56427;51.580;4.656;2023-07-22T11:52:00;101266.03;;;20.06;99.97
69306;BME280;56427;51.580;4.656;2023-07-22T11:54:26;101260.50;;;20.30;99.46
69306;BME280;56427;51.580;4.656;2023-07-22T11:56:52;101264.56;;;20.18;97.18
69306;BME280;56427;51.580;4.656;2023-07-22T11:59:36;101261.75;;;20.19;97.68
69306;BME280;56427;51.580;4.656;2023-07-22T12:02:02;101269.03;;;20.17;96.96
69306;BME280;56427;51.580;4.656;2023-07-22T12:04:30;101266.84;;;20.21;97.99
69306;BME280;56427;51.580;4.656;2023-07-22T12:06:56;101267.25;;;19.80;99.23
69306;BME280;56427;51.580;4.656;2023-07-22T12:09:22;101269.63;;;19.90;99.63
69306;BME280;56427;51.580;4.656;2023-07-22T12:11:55;101252.22;;;19.89;100.00
69306;BME280;56427;51.580;4.656;2023-07-22T12:14:21;101263.63;;;19.81;100.00
69306;BME280;56427;51.580;4.656;2023-07-22T12:16:47;101264.81;;;19.70;100.00
69306;BME280;56427;51.580;4.656;2023-07-22T12:19:12;101263.44;;;19.82;100.00
69306;BME280;56427;51.580;4.656;2023-07-22T12:21:38;101259.09;;;19.66;100.00
69306;BME280;56427;51.580;4.656;2023-07-22T12:24:03;101255.56;;;19.97;100.00
69306;BME280;56427;51.580;4.656;2023-07-22T12:26:31;101258.03;;;19.99;100.00
69306;BME280;56427;51.580;4.656;2023-07-22T12:28:57;101262.91;;;19.87;100.00
69306;BME280;56427;51.580;4.656;2023-07-22T12:31:22;101273.63;;;19.16;100.00
69306;BME280;56427;51.580;4.656;2023-07-22T12:33:48;101270.47;;;19.44;100.00
69306;BME280;56427;51.580;4.656;2023-07-22T12:36:13;101274.25;;;19.18;100.00
69306;BME280;56427;51.580;4.656;2023-07-22T12:38:39;101277.47;;;19.28;100.00
69306;BME280;56427;51.580;4.656;2023-07-22T12:41:04;101265.63;;;19.79;100.00
69306;BME280;56427;51.580;4.656;2023-07-22T12:43:30;101266.06;;;20.35;100.00